createdAt,value
2023-01-03T00:00:17.719Z,120.28
2023-01-03T00:02:48.573Z,122.15
2023-01-03T00:05:17.624Z,125.47
2023-01-03T00:07:46.567Z,133.82
2023-01-03T00:10:15.672Z,122.95
2023-01-03T00:12:43.687Z,123.13
2023-01-03T00:15:16.009Z,130.68
2023-01-03T00:17:45.530Z,126.20
2023-01-03T00:20:16.280Z,124.85
2023-01-03T00:22:45.391Z,121.10
2023-01-03T00:25:14.518Z,130.23
2023-01-03T00:27:43.743Z,135.57
2023-01-03T00:30:13.505Z,144.80
2023-01-03T00:32:42.633Z,140.73
2023-01-03T00:35:12.716Z,144.25
2023-01-03T00:37:43.587Z,141.38
2023-01-03T00:40:13.692Z,141.30
2023-01-03T00:43:00.245Z,139.50
2023-01-03T00:45:35.076Z,139.48
2023-01-03T00:48:04.962Z,149.52
2023-01-03T00:50:33.964Z,149.65
2023-01-03T00:53:04.916Z,145.43
2023-01-03T00:55:36.866Z,142.98
2023-01-03T00:58:06.052Z,132.75
2023-01-03T01:00:35.083Z,140.63
2023-01-03T01:03:04.198Z,129.50
2023-01-03T01:05:33.877Z,145.55
2023-01-03T01:08:04.169Z,147.43
2023-01-03T01:10:33.376Z,146.13
2023-01-03T01:13:02.382Z,155.55
2023-01-03T01:15:31.555Z,162.30
2023-01-03T01:18:00.727Z,152.93
2023-01-03T01:20:29.730Z,147.90
2023-01-03T01:22:58.922Z,144.40
2023-01-03T01:25:29.492Z,141.13
2023-01-03T01:27:58.693Z,129.80
2023-01-03T01:30:27.685Z,116.85
2023-01-03T01:32:56.762Z,108.75
2023-01-03T01:35:25.937Z,110.65
2023-01-03T01:37:54.936Z,116.82
2023-01-03T01:40:23.994Z,106.93
2023-01-03T01:43:26.403Z,104.28
2023-01-03T01:45:55.714Z,102.85
2023-01-03T01:48:24.976Z,97.95
2023-01-03T01:50:57.933Z,97.38
2023-01-03T01:53:31.530Z,98.68
2023-01-03T01:56:05.415Z,101.47
2023-01-03T01:58:41.489Z,97.30
2023-01-03T02:01:12.915Z,96.80
2023-01-03T02:03:44.553Z,90.18
2023-01-03T02:06:17.166Z,79.53
2023-01-03T02:09:05.113Z,97.72
2023-01-03T02:11:43.522Z,112.25
2023-01-03T02:14:44.402Z,122.93
2023-01-03T02:17:22.485Z,126.03
2023-01-03T02:20:28.356Z,120.20
2023-01-03T02:23:34.348Z,130.27
2023-01-03T02:26:38.000Z,138.27
2023-01-03T02:29:42.348Z,143.30
2023-01-03T02:32:16.966Z,139.18
2023-01-03T02:34:52.066Z,142.27
2023-01-03T02:37:30.581Z,138.18
2023-01-03T02:40:05.809Z,140.63
2023-01-03T02:43:02.338Z,138.05
2023-01-03T02:46:08.013Z,137.50
2023-01-03T02:48:48.418Z,138.43
2023-01-03T02:51:22.565Z,143.77
2023-01-03T02:53:52.994Z,138.50
2023-01-03T02:56:26.904Z,136.20
2023-01-03T02:59:18.840Z,128.85
2023-01-03T03:01:51.405Z,123.78
2023-01-03T03:04:23.153Z,123.28
2023-01-03T03:07:06.126Z,128.02
2023-01-03T03:09:55.274Z,121.78
2023-01-03T03:12:44.213Z,118.97
2023-01-03T03:15:16.052Z,121.68
2023-01-03T03:17:47.194Z,116.30
2023-01-03T03:20:37.096Z,120.07
2023-01-03T03:23:28.503Z,114.30
2023-01-03T03:26:00.651Z,104.40
2023-01-03T03:28:37.071Z,97.05
2023-01-03T03:31:10.816Z,80.78
2023-01-03T03:33:45.990Z,57.17
2023-01-03T03:36:21.299Z,48.70
2023-01-03T03:38:50.739Z,63.08
2023-01-03T03:41:43.365Z,75.57
2023-01-03T03:44:39.410Z,81.40
2023-01-03T03:47:17.655Z,74.63
2023-01-03T03:49:50.839Z,77.88
2023-01-03T03:52:25.731Z,75.53
2023-01-03T03:55:00.017Z,59.53
2023-01-03T03:57:33.893Z,60.83
2023-01-03T04:00:11.245Z,63.33
2023-01-03T04:02:47.168Z,61.65
2023-01-03T04:05:21.367Z,55.97
2023-01-03T04:07:51.878Z,54.20
2023-01-03T04:10:23.933Z,48.30
2023-01-03T04:12:53.984Z,50.10
2023-01-03T04:15:23.215Z,47.10
2023-01-03T04:17:52.391Z,42.20
2023-01-03T04:20:21.573Z,41.45
2023-01-03T04:23:00.200Z,43.78
2023-01-03T04:25:30.930Z,45.20
2023-01-03T04:27:59.918Z,48.38
2023-01-03T04:30:28.966Z,48.25
2023-01-03T04:32:57.980Z,47.45
2023-01-03T04:35:27.109Z,44.25
2023-01-03T04:37:57.701Z,40.60
2023-01-03T04:40:27.805Z,36.58
2023-01-03T04:43:14.769Z,36.45
2023-01-03T04:45:44.083Z,34.60
2023-01-03T04:48:13.191Z,38.17
2023-01-03T04:50:42.190Z,47.70
2023-01-03T04:53:15.220Z,42.30
2023-01-03T04:55:49.058Z,36.50
2023-01-03T04:58:18.238Z,36.63
2023-01-03T05:00:47.308Z,35.72
2023-01-03T05:03:21.246Z,34.20
2023-01-03T05:05:54.802Z,33.03
2023-01-03T05:08:26.190Z,36.80
2023-01-03T05:10:55.755Z,35.78
2023-01-03T05:13:24.881Z,36.83
2023-01-03T05:15:53.901Z,41.33
2023-01-03T05:18:22.870Z,52.75
2023-01-03T05:21:09.380Z,54.42
2023-01-03T05:24:15.685Z,54.05
2023-01-03T05:26:45.413Z,61.08
2023-01-03T05:29:17.938Z,88.30
2023-01-03T05:31:47.189Z,65.15
2023-01-03T05:34:16.657Z,63.22
2023-01-03T05:36:45.663Z,61.53
2023-01-03T05:39:16.341Z,60.72
2023-01-03T05:42:03.869Z,63.65
2023-01-03T05:44:34.407Z,63.33
2023-01-03T05:47:05.359Z,63.15
2023-01-03T05:49:35.839Z,66.65
2023-01-03T05:52:05.278Z,59.13
2023-01-03T05:54:35.865Z,56.75
2023-01-03T05:57:04.931Z,48.80
2023-01-03T05:59:34.044Z,87.00
2023-01-03T06:02:03.354Z,57.28
2023-01-03T06:04:32.494Z,54.67
2023-01-03T06:07:20.180Z,54.53
2023-01-03T06:09:50.659Z,53.58
2023-01-03T06:12:19.844Z,50.17
2023-01-03T06:14:48.817Z,60.25
2023-01-03T06:17:35.043Z,58.13
2023-01-03T06:20:04.446Z,52.20
2023-01-03T06:22:33.312Z,51.22
2023-01-03T06:25:03.847Z,51.15
2023-01-03T06:27:51.317Z,51.23
2023-01-03T06:30:21.127Z,57.97
2023-01-03T06:33:08.581Z,76.87
2023-01-03T06:35:40.430Z,74.60
2023-01-03T06:38:10.118Z,68.23
2023-01-03T06:40:45.600Z,66.13
2023-01-03T06:43:14.858Z,50.63
2023-01-03T06:46:02.658Z,46.27
2023-01-03T06:48:49.146Z,38.20
2023-01-03T06:51:39.093Z,35.77
2023-01-03T06:54:08.933Z,32.73
2023-01-03T06:56:39.400Z,32.10
2023-01-03T06:59:08.697Z,34.47
2023-01-03T07:01:37.905Z,30.53
2023-01-03T07:04:07.243Z,29.83
2023-01-03T07:06:36.379Z,30.63
2023-01-03T07:09:05.407Z,29.90
2023-01-03T07:11:34.752Z,32.37
2023-01-03T07:14:04.612Z,35.10
2023-01-03T07:16:35.624Z,36.10
2023-01-03T07:19:05.254Z,26.97
2023-01-03T07:21:36.158Z,26.03
2023-01-03T07:24:23.681Z,26.80
2023-01-03T07:26:52.746Z,31.53
2023-01-03T07:29:23.380Z,27.17
2023-01-03T07:31:52.477Z,27.07
2023-01-03T07:34:21.635Z,29.27
2023-01-03T07:36:50.688Z,31.07
2023-01-03T07:39:20.635Z,30.50
2023-01-03T07:42:07.175Z,25.73
2023-01-03T07:44:37.640Z,33.23
2023-01-03T07:47:06.768Z,27.13
2023-01-03T07:49:35.672Z,26.90
2023-01-03T07:52:04.831Z,26.53
2023-01-03T07:54:33.904Z,27.23
2023-01-03T07:57:02.953Z,26.03
2023-01-03T07:59:31.980Z,24.30
2023-01-03T08:02:02.412Z,22.73
2023-01-03T08:04:31.826Z,23.87
2023-01-03T08:07:00.899Z,22.03
2023-01-03T08:09:47.292Z,22.70
2023-01-03T08:12:38.948Z,22.77
2023-01-03T08:15:08.922Z,21.83
2023-01-03T08:17:39.543Z,22.17
2023-01-03T08:20:10.108Z,21.80
2023-01-03T08:22:39.390Z,23.87
2023-01-03T08:25:08.832Z,22.17
2023-01-03T08:27:38.051Z,21.53
2023-01-03T08:30:08.385Z,21.20
2023-01-03T08:32:39.063Z,20.40
2023-01-03T08:35:09.818Z,21.13
2023-01-03T08:37:39.054Z,21.93
2023-01-03T08:40:09.345Z,19.70
2023-01-03T08:42:39.136Z,19.50
2023-01-03T08:45:12.865Z,20.70
2023-01-03T08:47:44.329Z,19.30
2023-01-03T08:50:14.319Z,22.67
2023-01-03T08:52:43.391Z,20.87
2023-01-03T08:55:12.494Z,21.77
2023-01-03T08:57:41.789Z,20.67
2023-01-03T09:00:12.239Z,21.87
2023-01-03T09:02:42.985Z,22.53
2023-01-03T09:05:12.566Z,24.67
2023-01-03T09:07:41.599Z,28.73
2023-01-03T09:10:11.438Z,35.20
2023-01-03T09:12:40.769Z,30.03
2023-01-03T09:15:10.576Z,41.50
2023-01-03T09:17:42.508Z,73.53
2023-01-03T09:20:14.338Z,60.47
2023-01-03T09:22:43.524Z,81.63
2023-01-03T09:25:12.654Z,82.83
2023-01-03T09:27:45.666Z,56.40
2023-01-03T09:30:15.126Z,59.23
2023-01-03T09:32:44.447Z,54.17
2023-01-03T09:35:14.801Z,48.47
2023-01-03T09:37:48.619Z,50.47
2023-01-03T09:40:18.335Z,46.43
2023-01-03T09:43:24.941Z,40.60
2023-01-03T09:45:58.440Z,36.33
2023-01-03T09:48:32.136Z,24.37
2023-01-03T09:51:19.816Z,44.10
2023-01-03T09:54:10.567Z,46.07
2023-01-03T09:57:15.606Z,49.30
2023-01-03T10:00:01.991Z,55.50
2023-01-03T10:03:21.786Z,28.17
2023-01-03T10:06:06.717Z,54.97
2023-01-03T10:08:46.007Z,44.17
2023-01-03T10:11:23.383Z,36.53
2023-01-03T10:14:07.318Z,26.90
2023-01-03T10:16:49.050Z,19.73
2023-01-03T10:19:40.664Z,19.83
2023-01-03T10:22:14.782Z,39.27
2023-01-03T10:24:47.142Z,45.93
2023-01-03T10:27:18.512Z,33.33
2023-01-03T10:29:49.476Z,27.30
2023-01-03T10:32:34.312Z,39.57
2023-01-03T10:35:20.795Z,22.97
2023-01-03T10:37:54.134Z,25.50
2023-01-03T10:40:34.949Z,36.40
2023-01-03T10:43:17.159Z,41.80
2023-01-03T10:45:54.277Z,50.80
2023-01-03T10:48:23.854Z,19.67
2023-01-03T10:50:53.885Z,21.33
2023-01-03T10:53:24.908Z,18.67
2023-01-03T10:55:55.990Z,21.00
2023-01-03T10:58:32.164Z,19.00
2023-01-03T11:01:22.602Z,48.40
2023-01-03T11:04:10.791Z,20.50
2023-01-03T11:06:40.058Z,17.20
2023-01-03T11:09:13.684Z,20.03
2023-01-03T11:11:44.594Z,32.13
2023-01-03T11:14:23.401Z,21.37
2023-01-03T11:16:56.825Z,19.20
2023-01-03T11:19:30.051Z,16.87
2023-01-03T11:22:06.721Z,17.43
2023-01-03T11:24:53.095Z,19.73
2023-01-03T11:27:36.335Z,18.90
2023-01-03T11:30:21.210Z,17.87
2023-01-03T11:33:05.611Z,33.20
2023-01-03T11:35:48.701Z,35.00
2023-01-03T11:38:33.202Z,22.70
2023-01-03T11:41:21.394Z,20.50
2023-01-03T11:44:05.237Z,21.97
2023-01-03T11:46:52.611Z,23.53
2023-01-03T11:49:30.707Z,19.80
2023-01-03T11:52:18.367Z,20.10
2023-01-03T11:55:15.894Z,22.67
2023-01-03T11:57:55.813Z,26.40
2023-01-03T12:00:34.369Z,21.30
2023-01-03T12:03:13.407Z,18.30
2023-01-03T12:05:45.388Z,18.30
2023-01-03T12:08:46.241Z,18.33
2023-01-03T12:11:22.737Z,24.70
2023-01-03T12:14:01.615Z,19.07
2023-01-03T12:16:35.423Z,18.03
2023-01-03T12:19:12.520Z,17.83
2023-01-03T12:21:45.532Z,19.57
2023-01-03T12:24:19.448Z,18.63
2023-01-03T12:26:56.181Z,17.97
2023-01-03T12:29:32.217Z,21.87
2023-01-03T12:32:07.925Z,23.40
2023-01-03T12:34:44.479Z,20.47
2023-01-03T12:37:17.855Z,22.13
2023-01-03T12:39:55.783Z,20.57
2023-01-03T12:42:37.380Z,18.70
2023-01-03T12:45:23.091Z,19.33
2023-01-03T12:47:56.305Z,19.73
2023-01-03T12:50:31.957Z,18.90
2023-01-03T12:53:07.466Z,23.20
2023-01-03T12:56:22.281Z,22.53
2023-01-03T12:59:07.198Z,22.10
2023-01-03T13:01:42.608Z,19.20
2023-01-03T13:04:23.381Z,19.20
2023-01-03T13:06:58.642Z,18.80
2023-01-03T13:09:32.341Z,19.57
2023-01-03T13:12:07.084Z,20.37
2023-01-03T13:14:55.028Z,24.17
2023-01-03T13:17:27.679Z,21.33
2023-01-03T13:20:00.620Z,21.67
2023-01-03T13:22:52.219Z,24.73
2023-01-03T13:25:41.992Z,23.77
2023-01-03T13:28:32.108Z,20.40
2023-01-03T13:31:45.836Z,19.03
2023-01-03T13:34:40.279Z,18.43
2023-01-03T13:37:18.732Z,20.47
2023-01-03T13:40:02.103Z,20.43
2023-01-03T13:42:36.519Z,17.43
2023-01-03T13:45:56.567Z,20.17
2023-01-03T13:48:39.406Z,20.60
2023-01-03T13:51:47.219Z,21.03
2023-01-03T13:55:06.815Z,23.53
2023-01-03T13:57:53.103Z,25.20
2023-01-03T14:00:24.549Z,27.03
2023-01-03T14:03:23.030Z,26.03
2023-01-03T14:06:02.185Z,26.37
2023-01-03T14:08:44.680Z,27.47
2023-01-03T14:11:34.513Z,28.50
2023-01-03T14:14:08.184Z,28.53
2023-01-03T14:16:46.872Z,29.93
2023-01-03T14:19:22.956Z,30.47
2023-01-03T14:21:56.996Z,32.00
2023-01-03T14:24:31.651Z,35.77
2023-01-03T14:27:11.617Z,49.80
2023-01-03T14:29:50.875Z,64.67
2023-01-03T14:32:41.173Z,73.10
2023-01-03T14:35:37.785Z,67.60
2023-01-03T14:38:07.589Z,72.97
2023-01-03T14:40:38.352Z,68.37
2023-01-03T14:43:07.540Z,68.03
2023-01-03T14:45:37.891Z,61.93
2023-01-03T14:48:08.179Z,73.60
2023-01-03T14:50:37.471Z,82.63
2023-01-03T14:53:06.969Z,85.33
2023-01-03T14:55:37.731Z,83.93
2023-01-03T14:58:23.925Z,81.30
2023-01-03T15:01:00.021Z,80.20
2023-01-03T15:03:59.306Z,77.03
2023-01-03T15:06:31.023Z,75.60
2023-01-03T15:09:01.662Z,80.03
2023-01-03T15:12:00.762Z,94.83
2023-01-03T15:14:31.729Z,102.30
2023-01-03T15:17:13.782Z,97.93
2023-01-03T15:19:50.592Z,110.23
2023-01-03T15:22:23.542Z,103.17
2023-01-03T15:25:01.014Z,103.83
2023-01-03T15:27:43.117Z,102.40
2023-01-03T15:30:35.644Z,87.07
2023-01-03T15:33:20.315Z,78.37
2023-01-03T15:35:52.092Z,77.07
2023-01-03T15:38:32.203Z,62.93
2023-01-03T15:41:02.427Z,59.83
2023-01-03T15:43:37.883Z,58.60
2023-01-03T15:46:12.703Z,60.07
2023-01-03T15:48:45.594Z,66.70
2023-01-03T15:51:14.869Z,66.77
2023-01-03T15:53:44.964Z,67.27
2023-01-03T15:56:20.251Z,74.83
2023-01-03T15:58:52.806Z,89.17
2023-01-03T16:01:23.075Z,86.07
2023-01-03T16:03:53.684Z,93.17
2023-01-03T16:06:23.215Z,96.67
2023-01-03T16:08:53.055Z,90.13
2023-01-03T16:11:33.846Z,86.33
2023-01-03T16:14:14.501Z,73.90
2023-01-03T16:16:46.738Z,73.40
2023-01-03T16:19:21.034Z,71.47
2023-01-03T16:22:09.387Z,66.10
2023-01-03T16:24:40.716Z,63.37
2023-01-03T16:27:15.259Z,64.07
2023-01-03T16:29:45.852Z,62.93
2023-01-03T16:32:20.929Z,64.20
2023-01-03T16:34:50.514Z,82.73
2023-01-03T16:37:19.645Z,65.30
2023-01-03T16:39:49.278Z,64.90
2023-01-03T16:42:19.246Z,64.10
2023-01-03T16:44:50.199Z,71.10
2023-01-03T16:47:23.645Z,75.90
2023-01-03T16:49:58.129Z,71.83
2023-01-03T16:52:49.067Z,66.50
2023-01-03T16:55:21.485Z,60.73
2023-01-03T16:57:54.492Z,54.37
2023-01-03T17:00:27.639Z,52.43
2023-01-03T17:02:59.671Z,45.40
2023-01-03T17:05:29.806Z,46.17
2023-01-03T17:08:03.276Z,41.43
2023-01-03T17:10:35.879Z,38.63
2023-01-03T17:13:12.370Z,40.47
2023-01-03T17:15:46.050Z,38.53
2023-01-03T17:18:20.198Z,36.73
2023-01-03T17:20:54.287Z,43.13
2023-01-03T17:23:23.959Z,44.10
2023-01-03T17:25:53.381Z,48.10
2023-01-03T17:28:22.882Z,50.20
2023-01-03T17:30:56.832Z,47.63
2023-01-03T17:33:45.178Z,48.60
2023-01-03T17:36:15.775Z,49.00
2023-01-03T17:38:45.699Z,47.13
2023-01-03T17:41:19.209Z,49.57
2023-01-03T17:43:48.877Z,52.53
2023-01-03T17:46:41.148Z,54.37
2023-01-03T17:49:27.182Z,55.53
2023-01-03T17:51:58.667Z,57.77
2023-01-03T17:54:29.652Z,54.13
2023-01-03T17:56:59.939Z,53.47
2023-01-03T17:59:29.227Z,49.93
2023-01-03T18:01:59.933Z,51.30
2023-01-03T18:04:50.116Z,47.47
2023-01-03T18:07:26.101Z,53.60
2023-01-03T18:09:56.834Z,61.53
2023-01-03T18:12:27.025Z,78.97
2023-01-03T18:15:19.057Z,71.40
2023-01-03T18:17:50.479Z,60.47
2023-01-03T18:20:20.932Z,57.50
2023-01-03T18:22:50.779Z,57.43
2023-01-03T18:25:23.111Z,58.23
2023-01-03T18:27:54.672Z,54.83
2023-01-03T18:30:23.772Z,53.63
2023-01-03T18:32:54.503Z,51.43
2023-01-03T18:35:32.405Z,53.00
2023-01-03T18:38:05.874Z,53.83
2023-01-03T18:40:35.929Z,51.20
2023-01-03T18:43:13.865Z,50.97
2023-01-03T18:45:43.751Z,49.87
2023-01-03T18:48:17.308Z,50.33
2023-01-03T18:50:53.683Z,49.80
2023-01-03T18:53:31.364Z,52.27
2023-01-03T18:56:01.300Z,51.10
2023-01-03T18:58:35.830Z,53.03
2023-01-03T19:01:07.578Z,55.37
2023-01-03T19:03:42.771Z,55.77
2023-01-03T19:06:20.211Z,58.33
2023-01-03T19:08:50.045Z,58.93
2023-01-03T19:11:23.747Z,62.20
2023-01-03T19:13:55.280Z,61.57
2023-01-03T19:16:26.209Z,60.97
2023-01-03T19:18:57.631Z,61.97
2023-01-03T19:21:31.850Z,62.67
2023-01-03T19:24:04.613Z,75.60
2023-01-03T19:26:38.720Z,76.77
2023-01-03T19:29:09.654Z,80.70
2023-01-03T19:31:58.543Z,89.80
2023-01-03T19:34:29.267Z,103.83
2023-01-03T19:36:59.535Z,96.00
2023-01-03T19:39:33.641Z,96.67
2023-01-03T19:42:39.116Z,99.93
2023-01-03T19:45:29.061Z,113.17
2023-01-03T19:48:00.355Z,112.33
2023-01-03T19:50:33.395Z,112.20
2023-01-03T19:53:03.454Z,105.80
2023-01-03T19:55:34.691Z,96.83
2023-01-03T19:58:07.117Z,93.53
2023-01-03T20:00:37.294Z,92.73
2023-01-03T20:03:09.587Z,94.93
2023-01-03T20:05:40.377Z,87.23
2023-01-03T20:08:12.516Z,83.30
2023-01-03T20:10:43.821Z,78.83
2023-01-03T20:13:19.245Z,76.13
2023-01-03T20:15:50.211Z,71.93
2023-01-03T20:18:30.653Z,67.17
2023-01-03T20:21:05.611Z,69.80
2023-01-03T20:23:38.031Z,77.40
2023-01-03T20:26:08.602Z,83.17
2023-01-03T20:28:38.158Z,85.77
2023-01-03T20:31:08.213Z,87.57
2023-01-03T20:33:37.855Z,88.32
2023-01-03T20:36:17.934Z,87.93
2023-01-03T20:38:53.178Z,94.50
2023-01-03T20:41:36.607Z,102.57
2023-01-03T20:44:08.599Z,102.87
2023-01-03T20:46:39.157Z,118.53
2023-01-03T20:49:29.265Z,115.97
2023-01-03T20:51:59.868Z,111.43
2023-01-03T20:54:28.998Z,115.27
2023-01-03T20:57:17.812Z,110.07
2023-01-03T20:59:47.001Z,100.80
2023-01-03T21:02:34.905Z,97.23
2023-01-03T21:05:04.137Z,98.20
2023-01-03T21:07:48.409Z,87.70
2023-01-03T21:10:24.539Z,81.43
2023-01-03T21:12:53.753Z,82.32
2023-01-03T21:15:22.860Z,86.80
2023-01-03T21:17:51.908Z,92.13
2023-01-03T21:20:23.780Z,93.13
2023-01-03T21:22:54.866Z,90.53
2023-01-03T21:25:27.411Z,96.13
2023-01-03T21:27:57.070Z,101.60
2023-01-03T21:30:27.481Z,101.97
2023-01-03T21:32:57.237Z,109.83
2023-01-03T21:35:26.715Z,109.63
2023-01-03T21:37:57.577Z,106.53
2023-01-03T21:40:29.124Z,99.13
2023-01-03T21:43:05.084Z,86.70
2023-01-03T21:45:37.449Z,87.47
2023-01-03T21:48:08.558Z,88.88
2023-01-03T21:50:40.597Z,85.15
2023-01-03T21:53:14.054Z,83.50
2023-01-03T21:55:43.264Z,78.35
2023-01-03T21:58:15.197Z,73.93
2023-01-03T22:00:44.991Z,72.70
2023-01-03T22:03:31.745Z,68.53
2023-01-03T22:06:09.383Z,70.43
2023-01-03T22:08:40.080Z,66.30
2023-01-03T22:11:09.639Z,65.70
2023-01-03T22:13:38.881Z,66.90
2023-01-03T22:16:11.710Z,67.18
2023-01-03T22:18:41.246Z,65.50
2023-01-03T22:21:12.965Z,66.13
2023-01-03T22:23:47.421Z,64.30
2023-01-03T22:26:18.230Z,66.55
2023-01-03T22:28:48.592Z,71.97
2023-01-03T22:31:36.187Z,69.53
2023-01-03T22:34:05.351Z,79.35
2023-01-03T22:36:34.527Z,87.28
2023-01-03T22:39:05.057Z,99.38
2023-01-03T22:41:34.234Z,99.63
2023-01-03T22:44:03.275Z,109.15
2023-01-03T22:46:32.521Z,126.57
2023-01-03T22:49:01.686Z,123.47
2023-01-03T22:51:30.863Z,148.80
2023-01-03T22:54:00.210Z,139.32
2023-01-03T22:56:30.744Z,139.68
2023-01-03T22:58:59.922Z,135.32
2023-01-03T23:01:29.225Z,139.82
2023-01-03T23:04:01.423Z,151.82
2023-01-03T23:06:32.029Z,146.15
2023-01-03T23:09:05.555Z,151.18
2023-01-03T23:11:53.769Z,155.20
2023-01-03T23:14:24.504Z,153.15
2023-01-03T23:16:56.060Z,144.82
2023-01-03T23:19:27.432Z,147.65
2023-01-03T23:21:58.772Z,152.20
2023-01-03T23:24:28.022Z,149.93
2023-01-03T23:26:59.000Z,155.98
2023-01-03T23:29:28.542Z,160.60
2023-01-03T23:31:57.802Z,164.13
2023-01-03T23:34:26.833Z,164.05
2023-01-03T23:36:55.896Z,142.88
2023-01-03T23:39:24.953Z,152.43
2023-01-03T23:41:54.048Z,144.55
2023-01-03T23:44:24.672Z,149.55
2023-01-03T23:46:53.745Z,156.27
2023-01-03T23:49:22.631Z,143.55
2023-01-03T23:51:51.828Z,141.77
2023-01-03T23:54:20.883Z,107.10
2023-01-03T23:56:50.479Z,116.05
2023-01-03T23:59:19.836Z,123.45
